sensor_id;sensor_type;location;lat;lon;timestamp;pressure;altitude;pressure_sealevel;temperature;humidity
11525;BME280;5819;49.648;8.330;2024-02-26T00:02:17;98530.00;;;6.83;100.00
11525;BME280;5819;49.648;8.330;2024-02-26T00:04:44;98526.31;;;6.87;100.00
11525;BME280;5819;49.648;8.330;2024-02-26T00:07:12;98522.19;;;6.84;100.00
11525;BME280;5819;49.648;8.330;2024-02-26T00:09:40;98518.75;;;6.84;100.00
11525;BME280;5819;49.648;8.330;2024-02-26T00:12:09;98512.69;;;6.85;100.00
11525;BME280;5819;49.648;8.330;2024-02-26T00:14:37;98500.50;;;6.87;100.00
11525;BME280;5819;49.648;8.330;2024-02-26T00:17:06;98511.66;;;6.87;100.00
11525;BME280;5819;49.648;8.330;2024-02-26T00:19:35;98499.66;;;6.86;100.00
11525;BME280;5819;49.648;8.330;2024-02-26T00:22:03;98493.75;;;6.84;100.00
11525;BME280;5819;49.648;8.330;2024-02-26T00:24:31;98496.53;;;6.81;100.00
11525;BME280;5819;49.648;8.330;2024-02-26T00:26:59;98505.19;;;6.80;100.00
11525;BME280;5819;49.648;8.330;2024-02-26T00:29:27;98520.88;;;6.77;100.00
11525;BME280;5819;49.648;8.330;2024-02-26T00:31:55;98519.41;;;6.87;100.00
11525;BME280;5819;49.648;8.330;2024-02-26T00:34:24;98521.41;;;6.82;100.00
11525;BME280;5819;49.648;8.330;2024-02-26T00:36:52;98520.50;;;6.83;100.00
11525;BME280;5819;49.648;8.330;2024-02-26T00:39:20;98512.94;;;6.80;100.00
11525;BME280;5819;49.648;8.330;2024-02-26T00:41:48;98514.69;;;6.80;100.00
11525;BME280;5819;49.648;8.330;2024-02-26T00:44:18;98518.03;;;6.82;100.00
11525;BME280;5819;49.648;8.330;2024-02-26T00:46:46;98512.84;;;6.82;100.00
11525;BME280;5819;49.648;8.330;2024-02-26T00:49:14;98522.34;;;6.81;100.00
11525;BME280;5819;49.648;8.330;2024-02-26T00:51:43;98522.91;;;6.86;100.00
11525;BME280;5819;49.648;8.330;2024-02-26T00:54:11;98531.84;;;6.81;100.00
11525;BME280;5819;49.648;8.330;2024-02-26T00:56:39;98522.25;;;6.83;100.00
11525;BME280;5819;49.648;8.330;2024-02-26T00:59:07;98527.59;;;6.80;100.00
11525;BME280;5819;49.648;8.330;2024-02-26T01:01:35;98528.69;;;6.76;100.00
11525;BME280;5819;49.648;8.330;2024-02-26T01:04:03;98530.53;;;6.74;100.00
11525;BME280;5819;49.648;8.330;2024-02-26T01:06:31;98535.31;;;6.66;100.00
11525;BME280;5819;49.648;8.330;2024-02-26T01:09:00;98529.97;;;6.69;100.00
11525;BME280;5819;49.648;8.330;2024-02-26T01:11:29;98535.97;;;6.69;100.00
11525;BME280;5819;49.648;8.330;2024-02-26T01:13:56;98535.03;;;6.70;100.00
11525;BME280;5819;49.648;8.330;2024-02-26T01:16:24;98526.47;;;6.70;100.00
11525;BME280;5819;49.648;8.330;2024-02-26T01:18:55;98539.63;;;6.65;100.00
11525;BME280;5819;49.648;8.330;2024-02-26T01:21:23;98539.47;;;6.68;100.00
11525;BME280;5819;49.648;8.330;2024-02-26T01:23:51;98542.22;;;6.65;100.00
11525;BME280;5819;49.648;8.330;2024-02-26T01:26:20;98545.78;;;6.63;100.00
11525;BME280;5819;49.648;8.330;2024-02-26T01:28:49;98554.81;;;6.55;100.00
11525;BME280;5819;49.648;8.330;2024-02-26T01:31:17;98550.22;;;6.61;100.00
11525;BME280;5819;49.648;8.330;2024-02-26T01:33:45;98559.13;;;6.71;100.00
11525;BME280;5819;49.648;8.330;2024-02-26T01:36:13;98569.69;;;6.66;100.00
11525;BME280;5819;49.648;8.330;2024-02-26T01:38:41;98565.38;;;6.67;100.00
11525;BME280;5819;49.648;8.330;2024-02-26T01:41:09;98570.38;;;6.54;100.00
11525;BME280;5819;49.648;8.330;2024-02-26T01:43:38;98569.16;;;6.45;100.00
11525;BME280;5819;49.648;8.330;2024-02-26T01:46:07;98570.66;;;6.49;100.00
11525;BME280;5819;49.648;8.330;2024-02-26T01:48:38;98565.97;;;6.56;100.00
11525;BME280;5819;49.648;8.330;2024-02-26T01:51:06;98559.66;;;6.62;100.00
11525;BME280;5819;49.648;8.330;2024-02-26T01:53:34;98569.69;;;6.66;100.00
11525;BME280;5819;49.648;8.330;2024-02-26T01:56:03;98562.53;;;6.71;100.00
11525;BME280;5819;49.648;8.330;2024-02-26T01:58:31;98571.03;;;6.73;100.00
11525;BME280;5819;49.648;8.330;2024-02-26T02:01:02;98573.03;;;6.68;100.00
11525;BME280;5819;49.648;8.330;2024-02-26T02:03:30;98579.53;;;6.59;100.00
11525;BME280;5819;49.648;8.330;2024-02-26T02:05:58;98581.22;;;6.61;100.00
11525;BME280;5819;49.648;8.330;2024-02-26T02:08:27;98584.94;;;6.71;100.00
11525;BME280;5819;49.648;8.330;2024-02-26T02:10:55;98582.88;;;6.77;100.00
11525;BME280;5819;49.648;8.330;2024-02-26T02:13:24;98576.00;;;6.92;100.00
11525;BME280;5819;49.648;8.330;2024-02-26T02:15:52;98570.34;;;7.01;100.00
11525;BME280;5819;49.648;8.330;2024-02-26T02:18:21;98569.47;;;7.16;100.00
11525;BME280;5819;49.648;8.330;2024-02-26T02:20:51;98559.19;;;7.15;100.00
11525;BME280;5819;49.648;8.330;2024-02-26T02:23:19;98563.16;;;7.06;100.00
11525;BME280;5819;49.648;8.330;2024-02-26T02:25:47;98567.59;;;6.88;100.00
11525;BME280;5819;49.648;8.330;2024-02-26T02:28:14;98573.53;;;6.75;100.00
11525;BME280;5819;49.648;8.330;2024-02-26T02:30:42;98579.78;;;6.71;100.00
11525;BME280;5819;49.648;8.330;2024-02-26T02:33:10;98593.78;;;6.67;100.00
11525;BME280;5819;49.648;8.330;2024-02-26T02:35:39;98584.28;;;6.67;100.00
11525;BME280;5819;49.648;8.330;2024-02-26T02:38:08;98587.78;;;6.66;100.00
11525;BME280;5819;49.648;8.330;2024-02-26T02:40:36;98600.97;;;6.62;100.00
11525;BME280;5819;49.648;8.330;2024-02-26T02:43:04;98589.38;;;6.53;100.00
11525;BME280;5819;49.648;8.330;2024-02-26T02:45:31;98589.47;;;6.51;100.00
11525;BME280;5819;49.648;8.330;2024-02-26T02:47:59;98591.38;;;6.48;100.00
11525;BME280;5819;49.648;8.330;2024-02-26T02:50:27;98589.94;;;6.42;100.00
11525;BME280;5819;49.648;8.330;2024-02-26T02:52:56;98584.88;;;6.56;100.00
11525;BME280;5819;49.648;8.330;2024-02-26T02:55:25;98591.31;;;6.49;100.00
11525;BME280;5819;49.648;8.330;2024-02-26T02:57:53;98593.06;;;6.49;100.00
11525;BME280;5819;49.648;8.330;2024-02-26T03:00:22;98586.28;;;6.46;100.00
11525;BME280;5819;49.648;8.330;2024-02-26T03:02:50;98589.22;;;6.40;100.00
11525;BME280;5819;49.648;8.330;2024-02-26T03:05:18;98591.03;;;6.38;100.00
11525;BME280;5819;49.648;8.330;2024-02-26T03:07:46;98589.28;;;6.39;100.00
11525;BME280;5819;49.648;8.330;2024-02-26T03:10:14;98590.97;;;6.40;100.00
11525;BME280;5819;49.648;8.330;2024-02-26T03:12:43;98590.47;;;6.33;100.00
11525;BME280;5819;49.648;8.330;2024-02-26T03:15:12;98589.09;;;6.26;100.00
11525;BME280;5819;49.648;8.330;2024-02-26T03:17:39;98584.78;;;6.27;100.00
11525;BME280;5819;49.648;8.330;2024-02-26T03:20:09;98586.63;;;6.25;100.00
11525;BME280;5819;49.648;8.330;2024-02-26T03:22:38;98590.19;;;6.22;100.00
11525;BME280;5819;49.648;8.330;2024-02-26T03:25:07;98588.44;;;6.23;100.00
11525;BME280;5819;49.648;8.330;2024-02-26T03:27:35;98592.69;;;6.24;100.00
11525;BME280;5819;49.648;8.330;2024-02-26T03:30:05;98591.84;;;6.23;100.00
11525;BME280;5819;49.648;8.330;2024-02-26T03:32:33;98589.28;;;6.23;100.00
11525;BME280;5819;49.648;8.330;2024-02-26T03:35:01;98587.47;;;6.25;100.00
11525;BME280;5819;49.648;8.330;2024-02-26T03:37:30;98585.94;;;6.21;100.00
11525;BME280;5819;49.648;8.330;2024-02-26T03:39:58;98585.00;;;6.22;100.00
11525;BME280;5819;49.648;8.330;2024-02-26T03:42:27;98586.78;;;6.22;100.00
11525;BME280;5819;49.648;8.330;2024-02-26T03:44:55;98583.94;;;6.26;100.00
11525;BME280;5819;49.648;8.330;2024-02-26T03:47:24;98584.03;;;6.25;100.00
11525;BME280;5819;49.648;8.330;2024-02-26T03:49:53;98583.44;;;6.20;100.00
11525;BME280;5819;49.648;8.330;2024-02-26T03:52:20;98586.78;;;6.22;100.00
11525;BME280;5819;49.648;8.330;2024-02-26T03:54:48;98587.53;;;6.24;100.00
11525;BME280;5819;49.648;8.330;2024-02-26T03:57:16;98588.44;;;6.23;100.00
11525;BME280;5819;49.648;8.330;2024-02-26T03:59:43;98586.78;;;6.22;100.00
11525;BME280;5819;49.648;8.330;2024-02-26T04:02:11;98587.75;;;6.19;100.00
11525;BME280;5819;49.648;8.330;2024-02-26T04:04:40;98584.34;;;6.19;100.00
11525;BME280;5819;49.648;8.330;2024-02-26T04:07:08;98581.53;;;6.23;100.00
11525;BME280;5819;49.648;8.330;2024-02-26T04:09:38;98579.78;;;6.24;100.00
11525;BME280;5819;49.648;8.330;2024-02-26T04:12:06;98575.63;;;6.21;100.00
11525;BME280;5819;49.648;8.330;2024-02-26T04:14:35;98577.78;;;6.29;100.00
11525;BME280;5819;49.648;8.330;2024-02-26T04:17:03;98571.97;;;6.25;100.00
11525;BME280;5819;49.648;8.330;2024-02-26T04:19:31;98570.97;;;6.28;100.00
11525;BME280;5819;49.648;8.330;2024-02-26T04:22:01;98576.06;;;6.29;100.00
11525;BME280;5819;49.648;8.330;2024-02-26T04:24:29;98580.28;;;6.30;100.00
11525;BME280;5819;49.648;8.330;2024-02-26T04:26:57;98582.84;;;6.30;100.00
11525;BME280;5819;49.648;8.330;2024-02-26T04:29:25;98582.06;;;6.30;100.00
11525;BME280;5819;49.648;8.330;2024-02-26T04:31:53;98582.84;;;6.30;100.00
11525;BME280;5819;49.648;8.330;2024-02-26T04:34:20;98582.19;;;6.27;100.00
11525;BME280;5819;49.648;8.330;2024-02-26T04:36:49;98579.72;;;6.25;100.00
11525;BME280;5819;49.648;8.330;2024-02-26T04:39:19;98579.03;;;6.22;100.00
11525;BME280;5819;49.648;8.330;2024-02-26T04:41:46;98581.63;;;6.22;100.00
11525;BME280;5819;49.648;8.330;2024-02-26T04:44:14;98579.28;;;6.17;100.00
11525;BME280;5819;49.648;8.330;2024-02-26T04:46:42;98581.88;;;6.17;100.00
11525;BME280;5819;49.648;8.330;2024-02-26T04:49:10;98578.53;;;6.15;100.00
11525;BME280;5819;49.648;8.330;2024-02-26T04:51:38;98577.69;;;6.15;100.00
11525;BME280;5819;49.648;8.330;2024-02-26T04:54:06;98581.09;;;6.15;100.00
11525;BME280;5819;49.648;8.330;2024-02-26T04:56:35;98590.59;;;6.15;100.00
11525;BME280;5819;49.648;8.330;2024-02-26T04:59:03;98585.34;;;6.16;100.00
11525;BME280;5819;49.648;8.330;2024-02-26T05:01:31;98582.78;;;6.16;100.00
11525;BME280;5819;49.648;8.330;2024-02-26T05:03:59;98589.69;;;6.16;100.00
11525;BME280;5819;49.648;8.330;2024-02-26T05:06:27;98593.28;;;6.13;100.00
11525;BME280;5819;49.648;8.330;2024-02-26T05:08:55;98582.94;;;6.13;100.00
11525;BME280;5819;49.648;8.330;2024-02-26T05:11:23;98583.69;;;6.15;100.00
11525;BME280;5819;49.648;8.330;2024-02-26T05:13:52;98578.44;;;6.17;100.00
11525;BME280;5819;49.648;8.330;2024-02-26T05:16:20;98579.28;;;6.17;100.00
11525;BME280;5819;49.648;8.330;2024-02-26T05:18:51;98585.28;;;6.18;100.00
11525;BME280;5819;49.648;8.330;2024-02-26T05:21:19;98579.34;;;6.16;100.00
11525;BME280;5819;49.648;8.330;2024-02-26T05:23:47;98585.34;;;6.16;100.00
11525;BME280;5819;49.648;8.330;2024-02-26T05:26:19;98595.63;;;6.18;100.00
11525;BME280;5819;49.648;8.330;2024-02-26T05:28:47;98580.94;;;6.18;100.00
11525;BME280;5819;49.648;8.330;2024-02-26T05:31:16;98585.00;;;6.22;100.00
11525;BME280;5819;49.648;8.330;2024-02-26T05:33:44;98580.63;;;6.24;100.00
11525;BME280;5819;49.648;8.330;2024-02-26T05:36:18;98591.19;;;6.20;100.00
11525;BME280;5819;49.648;8.330;2024-02-26T05:38:46;98590.53;;;6.16;100.00
11525;BME280;5819;49.648;8.330;2024-02-26T05:41:15;98597.34;;;6.17;100.00
11525;BME280;5819;49.648;8.330;2024-02-26T05:43:43;98595.09;;;6.27;100.00
11525;BME280;5819;49.648;8.330;2024-02-26T05:46:11;98589.63;;;6.17;100.00
11525;BME280;5819;49.648;8.330;2024-02-26T05:48:40;98594.66;;;6.19;100.00
11525;BME280;5819;49.648;8.330;2024-02-26T05:51:09;98598.88;;;6.21;100.00
11525;BME280;5819;49.648;8.330;2024-02-26T05:53:37;98598.75;;;6.23;100.00
11525;BME280;5819;49.648;8.330;2024-02-26T05:56:06;98600.78;;;6.18;100.00
11525;BME280;5819;49.648;8.330;2024-02-26T05:58:34;98606.69;;;6.20;100.00
11525;BME280;5819;49.648;8.330;2024-02-26T06:01:02;98608.41;;;6.19;100.00
11525;BME280;5819;49.648;8.330;2024-02-26T06:03:30;98607.50;;;6.20;100.00
11525;BME280;5819;49.648;8.330;2024-02-26T06:06:00;98616.41;;;6.15;100.00
11525;BME280;5819;49.648;8.330;2024-02-26T06:08:28;98614.75;;;6.14;100.00
11525;BME280;5819;49.648;8.330;2024-02-26T06:10:57;98623.91;;;6.19;100.00
11525;BME280;5819;49.648;8.330;2024-02-26T06:13:25;98628.34;;;6.17;100.00
11525;BME280;5819;49.648;8.330;2024-02-26T06:15:53;98628.47;;;6.14;100.00
11525;BME280;5819;49.648;8.330;2024-02-26T06:18:21;98629.97;;;6.18;100.00
11525;BME280;5819;49.648;8.330;2024-02-26T06:20:50;98637.81;;;6.17;100.00
11525;BME280;5819;49.648;8.330;2024-02-26T06:23:20;98641.31;;;6.16;100.00
11525;BME280;5819;49.648;8.330;2024-02-26T06:25:48;98648.97;;;6.17;100.00
11525;BME280;5819;49.648;8.330;2024-02-26T06:28:16;98647.31;;;6.16;100.00
11525;BME280;5819;49.648;8.330;2024-02-26T06:30:46;98658.47;;;6.17;100.00
11525;BME280;5819;49.648;8.330;2024-02-26T06:33:14;98666.03;;;6.20;100.00
11525;BME280;5819;49.648;8.330;2024-02-26T06:35:43;98666.44;;;6.12;100.00
11525;BME280;5819;49.648;8.330;2024-02-26T06:38:11;98663.78;;;6.14;100.00
11525;BME280;5819;49.648;8.330;2024-02-26T06:40:41;98672.22;;;6.17;100.00
11525;BME280;5819;49.648;8.330;2024-02-26T06:43:09;98684.19;;;6.18;100.00
11525;BME280;5819;49.648;8.330;2024-02-26T06:45:37;98685.13;;;6.17;100.00
11525;BME280;5819;49.648;8.330;2024-02-26T06:48:06;98690.19;;;6.19;100.00
11525;BME280;5819;49.648;8.330;2024-02-26T06:50:34;98691.13;;;6.18;100.00
11525;BME280;5819;49.648;8.330;2024-02-26T06:53:02;98696.19;;;6.19;100.00
11525;BME280;5819;49.648;8.330;2024-02-26T06:55:29;98698.69;;;6.21;100.00
11525;BME280;5819;49.648;8.330;2024-02-26T06:57:58;98704.72;;;6.21;100.00
11525;BME280;5819;49.648;8.330;2024-02-26T07:00:27;98706.34;;;6.22;100.00
11525;BME280;5819;49.648;8.330;2024-02-26T07:02:55;98708.81;;;6.25;100.00
11525;BME280;5819;49.648;8.330;2024-02-26T07:05:23;98708.69;;;6.27;100.00
11525;BME280;5819;49.648;8.330;2024-02-26T07:07:51;98709.47;;;6.29;100.00
11525;BME280;5819;49.648;8.330;2024-02-26T07:10:19;98717.28;;;6.27;100.00
11525;BME280;5819;49.648;8.330;2024-02-26T07:12:47;98720.53;;;6.31;100.00
11525;BME280;5819;49.648;8.330;2024-02-26T07:15:17;98713.72;;;6.30;100.00
11525;BME280;5819;49.648;8.330;2024-02-26T07:17:45;98720.41;;;6.34;100.00
11525;BME280;5819;49.648;8.330;2024-02-26T07:20:15;98720.91;;;6.40;100.00
11525;BME280;5819;49.648;8.330;2024-02-26T07:22:44;98720.56;;;6.46;100.00
11525;BME280;5819;49.648;8.330;2024-02-26T07:25:13;98717.19;;;6.46;100.00
11525;BME280;5819;49.648;8.330;2024-02-26T07:27:42;98720.44;;;6.49;100.00
11525;BME280;5819;49.648;8.330;2024-02-26T07:30:11;98721.25;;;6.50;100.00
11525;BME280;5819;49.648;8.330;2024-02-26T07:32:41;98720.19;;;6.54;100.00
11525;BME280;5819;49.648;8.330;2024-02-26T07:35:08;98720.72;;;6.61;100.00
11525;BME280;5819;49.648;8.330;2024-02-26T07:37:36;98726.47;;;6.66;100.00
11525;BME280;5819;49.648;8.330;2024-02-26T07:40:05;98726.97;;;6.72;100.00
11525;BME280;5819;49.648;8.330;2024-02-26T07:42:34;98730.22;;;6.76;100.00
11525;BME280;5819;49.648;8.330;2024-02-26T07:45:02;98732.56;;;6.80;100.00
11525;BME280;5819;49.648;8.330;2024-02-26T07:47:31;98727.16;;;6.85;100.00
11525;BME280;5819;49.648;8.330;2024-02-26T07:50:03;98735.59;;;6.88;100.00
11525;BME280;5819;49.648;8.330;2024-02-26T07:52:31;98736.44;;;6.89;100.00
11525;BME280;5819;49.648;8.330;2024-02-26T07:54:59;98727.75;;;6.90;100.00
11525;BME280;5819;49.648;8.330;2024-02-26T07:57:28;98726.25;;;6.86;100.00
11525;BME280;5819;49.648;8.330;2024-02-26T07:59:56;98723.69;;;6.86;100.00
11525;BME280;5819;49.648;8.330;2024-02-26T08:02:24;98729.59;;;6.88;100.00
11525;BME280;5819;49.648;8.330;2024-02-26T08:04:52;98736.19;;;6.93;100.00
11525;BME280;5819;49.648;8.330;2024-02-26T08:07:22;98740.50;;;6.93;100.00
11525;BME280;5819;49.648;8.330;2024-02-26T08:09:50;98746.09;;;7.01;100.00
11525;BME280;5819;49.648;8.330;2024-02-26T08:12:18;98754.59;;;7.03;100.00
11525;BME280;5819;49.648;8.330;2024-02-26T08:14:46;98740.75;;;7.04;100.00
11525;BME280;5819;49.648;8.330;2024-02-26T08:17:14;98745.44;;;7.13;100.00
11525;BME280;5819;49.648;8.330;2024-02-26T08:19:42;98751.59;;;7.11;100.00
11525;BME280;5819;49.648;8.330;2024-02-26T08:22:09;98750.38;;;7.18;100.00
11525;BME280;5819;49.648;8.330;2024-02-26T08:24:43;98754.19;;;7.26;100.00
11525;BME280;5819;49.648;8.330;2024-02-26T08:27:12;98750.38;;;7.33;100.00
11525;BME280;5819;49.648;8.330;2024-02-26T08:29:39;98757.03;;;7.37;100.00
11525;BME280;5819;49.648;8.330;2024-02-26T08:32:07;98755.13;;;7.41;100.00
11525;BME280;5819;49.648;8.330;2024-02-26T08:34:35;98752.72;;;7.38;100.00
11525;BME280;5819;49.648;8.330;2024-02-26T08:37:03;98754.50;;;7.51;100.00
11525;BME280;5819;49.648;8.330;2024-02-26T08:39:31;98754.84;;;7.61;100.00
11525;BME280;5819;49.648;8.330;2024-02-26T08:42:01;98751.91;;;7.67;100.00
11525;BME280;5819;49.648;8.330;2024-02-26T08:44:29;98748.06;;;7.74;100.00
11525;BME280;5819;49.648;8.330;2024-02-26T08:46:57;98748.44;;;7.82;100.00
11525;BME280;5819;49.648;8.330;2024-02-26T08:49:26;98741.19;;;8.03;100.00
11525;BME280;5819;49.648;8.330;2024-02-26T08:51:53;98737.94;;;7.85;100.00
11525;BME280;5819;49.648;8.330;2024-02-26T08:54:22;98741.00;;;7.92;100.00
11525;BME280;5819;49.648;8.330;2024-02-26T08:56:51;98750.63;;;7.90;100.00
11525;BME280;5819;49.648;8.330;2024-02-26T08:59:20;98742.94;;;7.88;100.00
11525;BME280;5819;49.648;8.330;2024-02-26T09:01:49;98746.22;;;7.76;100.00
11525;BME280;5819;49.648;8.330;2024-02-26T09:04:17;98748.06;;;7.74;100.00
11525;BME280;5819;49.648;8.330;2024-02-26T09:06:45;98737.22;;;7.68;100.00
11525;BME280;5819;49.648;8.330;2024-02-26T09:09:13;98736.50;;;7.80;100.00
11525;BME280;5819;49.648;8.330;2024-02-26T09:11:41;98749.81;;;7.74;100.00
11525;BME280;5819;49.648;8.330;2024-02-26T09:14:09;98751.47;;;7.75;100.00
11525;BME280;5819;49.648;8.330;2024-02-26T09:16:38;98755.00;;;7.74;100.00
11525;BME280;5819;49.648;8.330;2024-02-26T09:19:06;98758.41;;;7.74;100.00
11525;BME280;5819;49.648;8.330;2024-02-26T09:21:34;98765.59;;;7.69;100.00
11525;BME280;5819;49.648;8.330;2024-02-26T09:24:02;98765.41;;;7.72;100.00
11525;BME280;5819;49.648;8.330;2024-02-26T09:26:30;98767.09;;;7.73;100.00
11525;BME280;5819;49.648;8.330;2024-02-26T09:28:58;98765.78;;;7.66;100.00
11525;BME280;5819;49.648;8.330;2024-02-26T09:31:25;98767.34;;;7.69;100.00
11525;BME280;5819;49.648;8.330;2024-02-26T09:33:55;98767.78;;;7.61;100.00
11525;BME280;5819;49.648;8.330;2024-02-26T09:36:27;98769.69;;;7.73;100.00
11525;BME280;5819;49.648;8.330;2024-02-26T09:38:55;98780.44;;;7.81;100.00
11525;BME280;5819;49.648;8.330;2024-02-26T09:41:28;98780.41;;;7.97;100.00
11525;BME280;5819;49.648;8.330;2024-02-26T09:43:57;98781.94;;;8.15;100.00
11525;BME280;5819;49.648;8.330;2024-02-26T09:46:26;98783.38;;;8.05;100.00
11525;BME280;5819;49.648;8.330;2024-02-26T09:48:56;98778.41;;;8.02;100.00
11525;BME280;5819;49.648;8.330;2024-02-26T09:51:24;98776.13;;;7.96;100.00
11525;BME280;5819;49.648;8.330;2024-02-26T09:53:53;98776.97;;;8.26;100.00
11525;BME280;5819;49.648;8.330;2024-02-26T09:56:21;98781.53;;;8.07;100.00
11525;BME280;5819;49.648;8.330;2024-02-26T09:58:50;98792.72;;;8.08;100.00
11525;BME280;5819;49.648;8.330;2024-02-26T10:01:21;98797.69;;;7.96;100.00
11525;BME280;5819;49.648;8.330;2024-02-26T10:03:54;98796.84;;;7.96;100.00
11525;BME280;5819;49.648;8.330;2024-02-26T10:06:26;98795.31;;;8.08;100.00
11525;BME280;5819;49.648;8.330;2024-02-26T10:08:55;98782.84;;;8.30;100.00
11525;BME280;5819;49.648;8.330;2024-02-26T10:11:26;98795.25;;;8.39;100.00
11525;BME280;5819;49.648;8.330;2024-02-26T10:13:54;98798.88;;;8.51;100.00
11525;BME280;5819;49.648;8.330;2024-02-26T10:16:22;98792.69;;;8.53;100.00
11525;BME280;5819;49.648;8.330;2024-02-26T10:18:51;98805.38;;;8.58;100.00
11525;BME280;5819;49.648;8.330;2024-02-26T10:21:27;98804.47;;;8.73;100.00
11525;BME280;5819;49.648;8.330;2024-02-26T10:23:55;98796.69;;;8.73;100.00
11525;BME280;5819;49.648;8.330;2024-02-26T10:26:23;98796.50;;;9.04;100.00
11525;BME280;5819;49.648;8.330;2024-02-26T10:28:51;98794.38;;;8.97;100.00
11525;BME280;5819;49.648;8.330;2024-02-26T10:31:21;98789.00;;;9.14;100.00
11525;BME280;5819;49.648;8.330;2024-02-26T10:33:49;98783.81;;;9.14;100.00
11525;BME280;5819;49.648;8.330;2024-02-26T10:36:18;98790.47;;;9.18;100.00
11525;BME280;5819;49.648;8.330;2024-02-26T10:38:49;98780.75;;;9.48;100.00
11525;BME280;5819;49.648;8.330;2024-02-26T10:41:22;98775.56;;;9.75;100.00
11525;BME280;5819;49.648;8.330;2024-02-26T10:43:50;98773.06;;;10.00;100.00
11525;BME280;5819;49.648;8.330;2024-02-26T10:46:19;98782.53;;;10.01;100.00
11525;BME280;5819;49.648;8.330;2024-02-26T10:48:51;98777.72;;;9.95;100.00
11525;BME280;5819;49.648;8.330;2024-02-26T10:51:24;98785.09;;;9.62;100.00
11525;BME280;5819;49.648;8.330;2024-02-26T10:53:56;98789.53;;;9.60;100.00
11525;BME280;5819;49.648;8.330;2024-02-26T10:56:28;98796.31;;;9.62;100.00
11525;BME280;5819;49.648;8.330;2024-02-26T10:58:57;98795.97;;;9.54;100.00
11525;BME280;5819;49.648;8.330;2024-02-26T11:01:27;98790.59;;;9.97;100.00
11525;BME280;5819;49.648;8.330;2024-02-26T11:03:56;98789.28;;;10.30;100.00
11525;BME280;5819;49.648;8.330;2024-02-26T11:06:26;98795.28;;;10.18;100.00
11525;BME280;5819;49.648;8.330;2024-02-26T11:08:57;98786.59;;;10.57;100.00
11525;BME280;5819;49.648;8.330;2024-02-26T11:11:26;98786.69;;;10.30;100.00
11525;BME280;5819;49.648;8.330;2024-02-26T11:13:55;98794.72;;;10.13;100.00
11525;BME280;5819;49.648;8.330;2024-02-26T11:16:25;98789.78;;;10.23;100.00
11525;BME280;5819;49.648;8.330;2024-02-26T11:18:54;98792.81;;;10.42;100.00
11525;BME280;5819;49.648;8.330;2024-02-26T11:21:23;98793.13;;;10.38;100.00
11525;BME280;5819;49.648;8.330;2024-02-26T11:23:57;98803.53;;;10.38;100.00
11525;BME280;5819;49.648;8.330;2024-02-26T11:26:26;98804.09;;;10.16;100.00
11525;BME280;5819;49.648;8.330;2024-02-26T11:28:55;98801.97;;;10.08;100.00
11525;BME280;5819;49.648;8.330;2024-02-26T11:31:24;98804.34;;;9.99;100.00
11525;BME280;5819;49.648;8.330;2024-02-26T11:33:55;98803.16;;;9.90;100.00
11525;BME280;5819;49.648;8.330;2024-02-26T11:36:24;98810.31;;;9.86;100.00
11525;BME280;5819;49.648;8.330;2024-02-26T11:38:52;98800.44;;;9.92;100.00
11525;BME280;5819;49.648;8.330;2024-02-26T11:41:22;98811.09;;;10.01;100.00
11525;BME280;5819;49.648;8.330;2024-02-26T11:43:50;98801.19;;;10.20;100.00
11525;BME280;5819;49.648;8.330;2024-02-26T11:46:29;98803.72;;;10.35;100.00
11525;BME280;5819;49.648;8.330;2024-02-26T11:49:02;98793.44;;;10.46;100.00
11525;BME280;5819;49.648;8.330;2024-02-26T11:51:33;98792.41;;;10.61;100.00
11525;BME280;5819;49.648;8.330;2024-02-26T11:54:02;98789.50;;;10.65;100.00
11525;BME280;5819;49.648;8.330;2024-02-26T11:56:33;98793.78;;;10.79;100.00
11525;BME280;5819;49.648;8.330;2024-02-26T11:59:03;98793.78;;;10.79;100.00
11525;BME280;5819;49.648;8.330;2024-02-26T12:01:40;98787.31;;;10.97;100.00
11525;BME280;5819;49.648;8.330;2024-02-26T12:04:12;98802.59;;;10.89;100.00
11525;BME280;5819;49.648;8.330;2024-02-26T12:06:42;98795.72;;;11.13;100.00
11525;BME280;5819;49.648;8.330;2024-02-26T12:09:11;98811.47;;;10.87;100.00
11525;BME280;5819;49.648;8.330;2024-02-26T12:11:42;98807.09;;;10.74;100.00
11525;BME280;5819;49.648;8.330;2024-02-26T12:14:10;98809.38;;;10.79;100.00
11525;BME280;5819;49.648;8.330;2024-02-26T12:16:38;98812.00;;;10.79;100.00
11525;BME280;5819;49.648;8.330;2024-02-26T12:19:09;98815.63;;;10.89;100.00
11525;BME280;5819;49.648;8.330;2024-02-26T12:21:37;98811.03;;;10.67;100.00
11525;BME280;5819;49.648;8.330;2024-02-26T12:24:12;98805.81;;;10.80;100.00
11525;BME280;5819;49.648;8.330;2024-02-26T12:26:42;98802.81;;;10.86;100.00
11525;BME280;5819;49.648;8.330;2024-02-26T12:29:09;98795.16;;;11.21;100.00
11525;BME280;5819;49.648;8.330;2024-02-26T12:31:39;98801.75;;;11.14;100.00
11525;BME280;5819;49.648;8.330;2024-02-26T12:34:07;98814.44;;;11.18;100.00
11525;BME280;5819;49.648;8.330;2024-02-26T12:36:37;98807.25;;;11.22;100.00
11525;BME280;5819;49.648;8.330;2024-02-26T12:39:07;98799.28;;;11.85;100.00
11525;BME280;5819;49.648;8.330;2024-02-26T12:41:37;98807.97;;;11.73;100.00
11525;BME280;5819;49.648;8.330;2024-02-26T12:44:07;98802.59;;;11.87;100.00
11525;BME280;5819;49.648;8.330;2024-02-26T12:46:35;98786.16;;;12.68;100.00
11525;BME280;5819;49.648;8.330;2024-02-26T12:49:04;98779.88;;;12.92;100.00
11525;BME280;5819;49.648;8.330;2024-02-26T12:51:33;98782.84;;;12.99;100.00
11525;BME280;5819;49.648;8.330;2024-02-26T12:54:12;98788.03;;;12.65;100.00
11525;BME280;5819;49.648;8.330;2024-02-26T12:56:45;98785.91;;;12.93;100.00
11525;BME280;5819;49.648;8.330;2024-02-26T12:59:15;98786.66;;;12.95;100.00
11525;BME280;5819;49.648;8.330;2024-02-26T13:01:43;98784.13;;;12.93;100.00
11525;BME280;5819;49.648;8.330;2024-02-26T13:04:10;98801.59;;;12.36;100.00
11525;BME280;5819;49.648;8.330;2024-02-26T13:06:39;98809.81;;;12.07;100.00
11525;BME280;5819;49.648;8.330;2024-02-26T13:09:08;98815.09;;;11.95;100.00
11525;BME280;5819;49.648;8.330;2024-02-26T13:11:39;98822.38;;;11.53;100.00
11525;BME280;5819;49.648;8.330;2024-02-26T13:14:07;98830.97;;;11.43;100.00
11525;BME280;5819;49.648;8.330;2024-02-26T13:16:38;98831.34;;;11.49;100.00
11525;BME280;5819;49.648;8.330;2024-02-26T13:19:09;98827.06;;;11.48;100.00